createdAt,value
2023-01-08T00:02:30.363Z,43.03
2023-01-08T00:05:33.414Z,33.37
2023-01-08T00:08:36.179Z,36.72
2023-01-08T00:11:39.337Z,43.78
2023-01-08T00:14:42.046Z,32.92
2023-01-08T00:17:45.116Z,42.47
2023-01-08T00:20:48.501Z,33.70
2023-01-08T00:23:51.618Z,37.63
2023-01-08T00:26:54.342Z,43.00
2023-01-08T00:29:57.477Z,41.63
2023-01-08T00:33:00.222Z,42.70
2023-01-08T00:36:12.899Z,40.70
2023-01-08T00:39:15.695Z,39.40
2023-01-08T00:42:18.867Z,37.65
2023-01-08T00:45:21.573Z,39.97
2023-01-08T00:48:25.331Z,37.40
2023-01-08T00:51:28.157Z,38.50
2023-01-08T00:54:31.242Z,43.20
2023-01-08T00:57:39.312Z,35.17
2023-01-08T01:00:42.374Z,35.97
2023-01-08T01:03:45.364Z,32.40
2023-01-08T01:06:48.463Z,43.87
2023-01-08T01:09:51.204Z,44.67
2023-01-08T01:12:54.177Z,50.28
2023-01-08T01:15:58.622Z,49.70
2023-01-08T01:19:01.661Z,36.00
2023-01-08T01:22:05.100Z,39.13
2023-01-08T01:25:09.287Z,41.05
2023-01-08T01:28:12.030Z,33.83
2023-01-08T01:31:15.314Z,43.85
2023-01-08T01:34:18.108Z,42.17
2023-01-08T01:37:21.191Z,30.73
2023-01-08T01:40:23.897Z,38.85
2023-01-08T01:43:44.116Z,35.67
2023-01-08T01:46:48.432Z,39.35
2023-01-08T01:50:03.636Z,39.97
2023-01-08T01:53:11.925Z,35.53
2023-01-08T01:56:15.726Z,42.83
2023-01-08T01:59:18.421Z,42.47
2023-01-08T02:02:23.021Z,38.28
2023-01-08T02:05:35.140Z,42.77
2023-01-08T02:09:00.739Z,33.87
2023-01-08T02:12:23.628Z,43.05
2023-01-08T02:15:55.993Z,41.97
2023-01-08T02:19:23.047Z,33.92
2023-01-08T02:22:55.336Z,41.47
2023-01-08T02:26:19.307Z,38.73
2023-01-08T02:29:26.210Z,38.30
2023-01-08T02:32:36.513Z,44.65
2023-01-08T02:36:01.715Z,42.15
2023-01-08T02:39:52.653Z,45.27
2023-01-08T02:43:12.181Z,41.90
2023-01-08T02:46:19.479Z,36.53
2023-01-08T02:49:28.082Z,44.42
2023-01-08T02:52:35.068Z,39.45
2023-01-08T02:55:41.544Z,46.50
2023-01-08T02:58:47.102Z,50.03
2023-01-08T03:01:50.718Z,45.75
2023-01-08T03:04:59.830Z,44.92
2023-01-08T03:08:03.153Z,46.47
2023-01-08T03:11:07.958Z,47.80
2023-01-08T03:14:26.119Z,48.93
2023-01-08T03:17:45.218Z,45.17
2023-01-08T03:20:49.852Z,47.33
2023-01-08T03:23:53.210Z,52.30
2023-01-08T03:27:00.960Z,48.30
2023-01-08T03:30:06.728Z,41.20
2023-01-08T03:33:13.593Z,33.50
2023-01-08T03:36:21.722Z,31.45
2023-01-08T03:39:53.038Z,48.25
2023-01-08T03:42:57.944Z,38.60
2023-01-08T03:46:04.239Z,44.83
2023-01-08T03:49:08.561Z,44.38
2023-01-08T03:52:25.859Z,42.38
2023-01-08T03:55:28.521Z,51.05
2023-01-08T03:58:31.657Z,61.23
2023-01-08T04:01:34.473Z,42.13
2023-01-08T04:04:37.736Z,46.08
2023-01-08T04:07:40.700Z,40.45
2023-01-08T04:10:43.743Z,51.63
2023-01-08T04:13:46.403Z,51.10
2023-01-08T04:16:49.732Z,49.50
2023-01-08T04:19:52.394Z,43.72
2023-01-08T04:22:55.584Z,52.60
2023-01-08T04:25:58.330Z,52.00
2023-01-08T04:29:04.970Z,49.23
2023-01-08T04:32:07.699Z,46.73
2023-01-08T04:35:10.802Z,50.12
2023-01-08T04:38:13.513Z,51.45
2023-01-08T04:41:18.693Z,49.03
2023-01-08T04:44:21.361Z,46.73
2023-01-08T04:47:24.353Z,48.63
2023-01-08T04:50:27.564Z,36.33
2023-01-08T04:53:33.571Z,43.25
2023-01-08T04:56:36.219Z,38.53
2023-01-08T04:59:39.263Z,44.67
2023-01-08T05:02:42.109Z,43.27
2023-01-08T05:05:45.395Z,49.08
2023-01-08T05:08:48.276Z,48.25
2023-01-08T05:11:51.387Z,45.03
2023-01-08T05:14:54.041Z,41.73
2023-01-08T05:18:05.310Z,45.50
2023-01-08T05:21:07.976Z,37.72
2023-01-08T05:24:11.087Z,40.65
2023-01-08T05:27:13.921Z,30.17
2023-01-08T05:30:17.318Z,29.33
2023-01-08T05:33:20.598Z,30.23
2023-01-08T05:36:23.650Z,38.15
2023-01-08T05:39:26.358Z,41.08
2023-01-08T05:42:29.610Z,41.20
2023-01-08T05:45:33.573Z,43.80
2023-01-08T05:48:37.598Z,40.43
2023-01-08T05:51:40.280Z,37.45
2023-01-08T05:54:43.275Z,43.15
2023-01-08T05:57:45.975Z,26.12
2023-01-08T06:00:49.095Z,33.27
2023-01-08T06:03:55.722Z,41.63
2023-01-08T06:06:58.439Z,27.42
2023-01-08T06:10:01.604Z,34.25
2023-01-08T06:13:08.221Z,37.83
2023-01-08T06:16:12.076Z,34.10
2023-01-08T06:19:14.978Z,33.73
2023-01-08T06:22:18.044Z,40.60
2023-01-08T06:25:21.150Z,33.13
2023-01-08T06:28:24.777Z,36.65
2023-01-08T06:31:27.585Z,37.57
2023-01-08T06:34:30.718Z,32.53
2023-01-08T06:37:33.560Z,38.40
2023-01-08T06:40:36.688Z,33.47
2023-01-08T06:43:39.806Z,23.90
2023-01-08T06:46:43.014Z,38.70
2023-01-08T06:49:45.726Z,28.87
2023-01-08T06:52:55.691Z,34.03
2023-01-08T06:55:59.009Z,37.22
2023-01-08T06:59:03.067Z,40.80
2023-01-08T07:02:06.189Z,33.57
2023-01-08T07:05:09.522Z,41.00
2023-01-08T07:08:16.749Z,29.80
2023-01-08T07:11:19.796Z,34.95
2023-01-08T07:14:22.696Z,34.70
2023-01-08T07:17:25.988Z,38.00
2023-01-08T07:20:28.728Z,39.63
2023-01-08T07:23:32.106Z,33.75
2023-01-08T07:26:34.941Z,39.45
2023-01-08T07:29:37.934Z,24.55
2023-01-08T07:32:40.708Z,37.43
2023-01-08T07:35:43.924Z,27.10
2023-01-08T07:38:46.626Z,38.97
2023-01-08T07:41:49.704Z,38.10
2023-01-08T07:44:52.849Z,36.58
2023-01-08T07:47:59.299Z,34.30
2023-01-08T07:51:07.335Z,34.60
2023-01-08T07:54:10.480Z,36.47
2023-01-08T07:57:13.205Z,24.50
2023-01-08T08:00:16.486Z,31.40
2023-01-08T08:03:19.668Z,34.87
2023-01-08T08:06:22.337Z,21.27
2023-01-08T08:09:25.473Z,25.70
2023-01-08T08:12:28.128Z,32.80
2023-01-08T08:15:31.432Z,26.12
2023-01-08T08:18:34.183Z,27.20
2023-01-08T08:21:37.225Z,34.00
2023-01-08T08:24:40.144Z,33.05
2023-01-08T08:27:44.507Z,26.73
2023-01-08T08:30:47.266Z,29.73
2023-01-08T08:33:50.366Z,24.70
2023-01-08T08:36:53.089Z,29.30
2023-01-08T08:39:56.219Z,33.55
2023-01-08T08:43:00.996Z,29.15
2023-01-08T08:46:04.130Z,31.92
2023-01-08T08:49:06.851Z,29.83
2023-01-08T08:52:09.928Z,18.80
2023-01-08T08:55:19.102Z,25.90
2023-01-08T08:58:22.088Z,24.27
2023-01-08T09:01:25.025Z,28.42
2023-01-08T09:04:32.629Z,26.80
2023-01-08T09:07:35.394Z,31.93
2023-01-08T09:10:41.708Z,29.95
2023-01-08T09:13:44.382Z,27.95
2023-01-08T09:16:47.963Z,18.73
2023-01-08T09:19:50.683Z,26.13
2023-01-08T09:22:54.295Z,26.33
2023-01-08T09:26:02.020Z,25.23
2023-01-08T09:29:05.364Z,26.33
2023-01-08T09:32:09.131Z,24.50
2023-01-08T09:35:12.279Z,25.60
2023-01-08T09:38:15.039Z,33.20
2023-01-08T09:41:31.482Z,20.58
2023-01-08T09:44:40.476Z,29.85
2023-01-08T09:47:44.600Z,18.12
2023-01-08T09:50:48.991Z,20.17
2023-01-08T09:53:56.501Z,20.33
2023-01-08T09:57:00.840Z,24.37
2023-01-08T10:00:04.633Z,24.65
2023-01-08T10:03:12.498Z,18.08
2023-01-08T10:06:16.865Z,17.73
2023-01-08T10:09:24.432Z,18.63
2023-01-08T10:12:33.058Z,17.37
2023-01-08T10:15:35.881Z,21.55
2023-01-08T10:18:40.932Z,19.30
2023-01-08T10:21:43.818Z,24.83
2023-01-08T10:24:47.262Z,17.17
2023-01-08T10:27:58.563Z,20.05
2023-01-08T10:31:19.906Z,24.77
2023-01-08T10:34:28.233Z,21.77
2023-01-08T10:37:42.992Z,18.33
2023-01-08T10:40:48.869Z,16.37
2023-01-08T10:44:04.453Z,16.75
2023-01-08T10:47:07.227Z,16.55
2023-01-08T10:50:21.282Z,18.12
2023-01-08T10:53:27.116Z,15.43
2023-01-08T10:56:41.165Z,17.23
2023-01-08T10:59:43.937Z,14.93
2023-01-08T11:02:50.679Z,17.65
2023-01-08T11:05:53.552Z,15.60
2023-01-08T11:09:15.480Z,17.30
2023-01-08T11:12:40.338Z,14.03
2023-01-08T11:15:44.275Z,15.40
2023-01-08T11:18:51.625Z,14.40
2023-01-08T11:22:08.844Z,14.18
2023-01-08T11:25:15.311Z,15.60
2023-01-08T11:28:26.906Z,14.90
2023-01-08T11:31:34.769Z,17.33
2023-01-08T11:35:08.156Z,13.05
2023-01-08T11:38:12.791Z,16.60
2023-01-08T11:41:27.170Z,18.70
2023-01-08T11:44:29.970Z,11.70
2023-01-08T11:47:48.029Z,20.42
2023-01-08T11:51:06.100Z,17.02
2023-01-08T11:54:24.258Z,22.52
2023-01-08T11:57:42.151Z,31.87
2023-01-08T12:01:01.338Z,23.90
2023-01-08T12:04:37.858Z,19.62
2023-01-08T12:08:18.335Z,16.27
2023-01-08T12:11:28.738Z,18.87
2023-01-08T12:14:49.612Z,16.20
2023-01-08T12:18:02.926Z,22.97
2023-01-08T12:21:53.619Z,24.42
2023-01-08T12:25:33.145Z,20.75
2023-01-08T12:29:02.490Z,18.17
2023-01-08T12:32:20.712Z,20.40
2023-01-08T12:35:30.448Z,14.00
2023-01-08T12:38:37.793Z,14.82
2023-01-08T12:41:44.149Z,16.17
2023-01-08T12:44:47.949Z,13.10
2023-01-08T12:47:57.835Z,16.07
2023-01-08T12:51:26.978Z,13.43
2023-01-08T12:54:50.779Z,17.50
2023-01-08T12:58:23.110Z,17.50
2023-01-08T13:01:48.147Z,22.25
2023-01-08T13:04:51.782Z,15.23
2023-01-08T13:07:58.228Z,11.77
2023-01-08T13:11:02.709Z,13.73
2023-01-08T13:14:09.872Z,11.63
2023-01-08T13:17:22.510Z,13.45
2023-01-08T13:20:32.043Z,12.43
2023-01-08T13:23:36.170Z,11.63
2023-01-08T13:26:38.923Z,7.25
2023-01-08T13:29:44.956Z,7.93
2023-01-08T13:32:48.973Z,7.90
2023-01-08T13:35:52.393Z,9.77
2023-01-08T13:39:04.192Z,10.77
2023-01-08T13:42:28.717Z,10.77
2023-01-08T13:45:32.227Z,10.73
2023-01-08T13:48:41.381Z,11.77
2023-01-08T13:51:46.554Z,11.27
2023-01-08T13:54:49.913Z,12.37
2023-01-08T13:57:57.740Z,16.05
2023-01-08T14:01:02.440Z,12.18
2023-01-08T14:04:05.605Z,16.73
2023-01-08T14:07:14.472Z,12.27
2023-01-08T14:10:18.796Z,17.17
2023-01-08T14:13:31.775Z,14.93
2023-01-08T14:16:37.625Z,11.02
2023-01-08T14:19:41.437Z,10.15
2023-01-08T14:22:44.669Z,10.97
2023-01-08T14:25:52.111Z,10.53
2023-01-08T14:28:55.410Z,12.40
2023-01-08T14:32:01.292Z,8.85
2023-01-08T14:35:09.589Z,11.38
2023-01-08T14:38:15.473Z,10.93
2023-01-08T14:41:55.283Z,15.10
2023-01-08T14:45:08.413Z,12.93
2023-01-08T14:48:14.012Z,13.05
2023-01-08T14:51:23.799Z,15.07
2023-01-08T14:54:31.716Z,14.23
2023-01-08T14:57:35.083Z,14.80
2023-01-08T15:00:38.241Z,8.70
2023-01-08T15:03:45.922Z,15.73
2023-01-08T15:06:51.336Z,14.85
2023-01-08T15:10:01.639Z,13.43
2023-01-08T15:13:08.733Z,14.83
2023-01-08T15:16:19.807Z,9.75
2023-01-08T15:19:28.667Z,18.02
2023-01-08T15:22:33.178Z,11.55
2023-01-08T15:25:36.556Z,15.20
2023-01-08T15:28:45.908Z,13.87
2023-01-08T15:31:49.656Z,12.70
2023-01-08T15:34:52.526Z,17.90
2023-01-08T15:37:55.743Z,14.55
2023-01-08T15:40:58.673Z,17.73
2023-01-08T15:44:01.842Z,17.53
2023-01-08T15:47:04.705Z,15.18
2023-01-08T15:50:08.272Z,16.37
2023-01-08T15:53:17.219Z,17.35
2023-01-08T15:56:20.653Z,17.07
2023-01-08T15:59:23.445Z,14.87
2023-01-08T16:02:26.825Z,11.68
2023-01-08T16:05:31.097Z,13.05
2023-01-08T16:08:33.976Z,17.30
2023-01-08T16:11:37.477Z,16.30
2023-01-08T16:14:40.967Z,15.27
2023-01-08T16:17:45.004Z,13.95
2023-01-08T16:20:47.808Z,8.02
2023-01-08T16:23:51.000Z,14.85
2023-01-08T16:26:53.824Z,13.27
2023-01-08T16:29:57.453Z,15.57
2023-01-08T16:33:00.283Z,14.70
2023-01-08T16:36:07.432Z,22.83
2023-01-08T16:39:11.290Z,26.98
2023-01-08T16:42:14.711Z,15.07
2023-01-08T16:45:17.878Z,20.63
2023-01-08T16:48:21.950Z,14.40
2023-01-08T16:51:27.801Z,11.45
2023-01-08T16:54:31.157Z,14.02
2023-01-08T16:57:35.626Z,15.80
2023-01-08T17:00:41.237Z,16.53
2023-01-08T17:03:44.358Z,14.02
2023-01-08T17:06:48.763Z,14.70
2023-01-08T17:09:51.773Z,14.87
2023-01-08T17:12:55.104Z,14.27
2023-01-08T17:15:59.897Z,13.93
2023-01-08T17:19:03.998Z,8.43
2023-01-08T17:22:07.483Z,15.65
2023-01-08T17:25:11.722Z,14.73
2023-01-08T17:28:14.997Z,15.30
2023-01-08T17:31:20.447Z,20.33
2023-01-08T17:34:23.218Z,17.35
2023-01-08T17:37:30.266Z,16.87
2023-01-08T17:40:35.026Z,14.90
2023-01-08T17:43:40.156Z,10.27
2023-01-08T17:46:45.644Z,13.50
2023-01-08T17:49:53.540Z,14.75
2023-01-08T17:52:57.825Z,21.87
2023-01-08T17:56:05.671Z,15.65
2023-01-08T17:59:14.990Z,23.43
2023-01-08T18:02:18.889Z,18.03
2023-01-08T18:05:22.343Z,11.90
2023-01-08T18:08:26.178Z,15.20
2023-01-08T18:11:29.949Z,15.68
2023-01-08T18:14:41.638Z,17.13
2023-01-08T18:17:45.323Z,16.33
2023-01-08T18:20:48.840Z,15.85
2023-01-08T18:23:52.581Z,16.70
2023-01-08T18:26:56.687Z,14.95
2023-01-08T18:30:00.177Z,14.83
2023-01-08T18:33:03.649Z,18.07
2023-01-08T18:36:10.934Z,18.20
2023-01-08T18:39:14.571Z,24.27
2023-01-08T18:42:27.889Z,20.60
2023-01-08T18:45:35.848Z,24.80
2023-01-08T18:48:39.519Z,18.43
2023-01-08T18:51:42.897Z,16.27
2023-01-08T18:54:46.652Z,17.90
2023-01-08T18:57:51.562Z,18.92
2023-01-08T19:00:55.534Z,22.63
2023-01-08T19:03:58.999Z,22.33
2023-01-08T19:07:03.078Z,20.45
2023-01-08T19:10:06.372Z,26.02
2023-01-08T19:13:12.968Z,23.15
2023-01-08T19:16:19.151Z,26.10
2023-01-08T19:19:23.529Z,24.20
2023-01-08T19:22:30.080Z,27.20
2023-01-08T19:25:33.812Z,26.30
2023-01-08T19:28:37.923Z,26.73
2023-01-08T19:31:41.845Z,26.67
2023-01-08T19:34:45.027Z,26.87
2023-01-08T19:37:49.196Z,28.08
2023-01-08T19:40:58.173Z,28.15
2023-01-08T19:44:02.634Z,31.73
2023-01-08T19:47:07.227Z,33.87
2023-01-08T19:50:12.344Z,38.83
2023-01-08T19:53:15.977Z,34.25
2023-01-08T19:56:20.058Z,32.03
2023-01-08T19:59:25.018Z,32.45
2023-01-08T20:02:28.633Z,30.87
2023-01-08T20:05:32.943Z,26.30
2023-01-08T20:08:37.107Z,28.67
2023-01-08T20:11:42.306Z,28.90
2023-01-08T20:14:46.031Z,27.25
2023-01-08T20:17:50.120Z,27.77
2023-01-08T20:20:53.298Z,23.83
2023-01-08T20:24:00.837Z,26.27
2023-01-08T20:27:04.983Z,29.95
2023-01-08T20:30:10.942Z,30.83
2023-01-08T20:33:17.667Z,33.13
2023-01-08T20:36:25.305Z,37.83
2023-01-08T20:39:29.129Z,31.90
2023-01-08T20:42:34.735Z,32.42
2023-01-08T20:45:41.423Z,34.25
2023-01-08T20:48:48.555Z,29.63
2023-01-08T20:51:59.161Z,30.20
2023-01-08T20:55:03.313Z,32.13
2023-01-08T20:58:06.308Z,32.00
2023-01-08T21:01:12.909Z,30.98
2023-01-08T21:04:16.325Z,36.13
2023-01-08T21:07:19.429Z,42.77
2023-01-08T21:10:22.323Z,41.67
2023-01-08T21:13:25.676Z,47.92
2023-01-08T21:16:30.566Z,38.10
2023-01-08T21:19:34.070Z,40.63
2023-01-08T21:22:36.972Z,44.60
2023-01-08T21:25:40.816Z,45.00
2023-01-08T21:28:44.356Z,42.55
2023-01-08T21:31:47.808Z,41.83
2023-01-08T21:34:50.778Z,46.60
2023-01-08T21:37:53.901Z,53.37
2023-01-08T21:41:05.679Z,67.43
2023-01-08T21:44:39.317Z,55.42
2023-01-08T21:47:42.409Z,48.63
2023-01-08T21:50:45.437Z,46.37
2023-01-08T21:53:48.207Z,45.37
2023-01-08T21:56:51.315Z,48.15
2023-01-08T21:59:55.048Z,45.08
2023-01-08T22:02:58.619Z,47.47
2023-01-08T22:06:04.918Z,44.33
2023-01-08T22:09:07.556Z,48.10
2023-01-08T22:12:10.734Z,48.65
2023-01-08T22:15:13.566Z,49.88
2023-01-08T22:18:16.999Z,45.15
2023-01-08T22:21:19.924Z,44.87
2023-01-08T22:24:23.011Z,43.93
2023-01-08T22:27:25.800Z,38.53
2023-01-08T22:30:28.911Z,25.62
2023-01-08T22:33:31.725Z,20.00
2023-01-08T22:36:34.842Z,19.07
2023-01-08T22:39:37.593Z,15.87
2023-01-08T22:42:40.624Z,19.00
2023-01-08T22:45:43.413Z,15.73
2023-01-08T22:48:46.520Z,15.15
2023-01-08T22:51:49.237Z,14.43
2023-01-08T22:54:54.969Z,11.37
2023-01-08T22:57:57.663Z,10.77
2023-01-08T23:01:00.705Z,12.43
2023-01-08T23:04:04.033Z,9.43
2023-01-08T23:07:07.192Z,7.90
2023-01-08T23:10:10.834Z,7.00
2023-01-08T23:13:13.922Z,8.05
2023-01-08T23:16:18.300Z,6.75
2023-01-08T23:19:21.413Z,7.65
2023-01-08T23:22:24.217Z,3.87
2023-01-08T23:25:28.336Z,6.03
2023-01-08T23:28:31.634Z,6.20
2023-01-08T23:31:37.824Z,9.48
2023-01-08T23:34:40.603Z,7.28
2023-01-08T23:37:43.555Z,6.27
2023-01-08T23:40:46.412Z,6.10
2023-01-08T23:43:50.382Z,7.65
2023-01-08T23:46:53.128Z,7.40
2023-01-08T23:49:56.151Z,6.90
2023-01-08T23:52:59.005Z,5.80
2023-01-08T23:56:02.077Z,7.40
2023-01-08T23:59:05.216Z,5.62
